Aurora, Maine
Current Conditions -  °F | °C
As of 7:53 PM on Wednesday 26 Nov 2014 (Local Time) from KBGR Reporting Station
Moderate Snow Moderate Snow  
Wind Chill: -6°   Ceiling: 500
Heat Index:   Visibility: 0.5mi
Dew Point: -1°   Wind: 14mph
Humidity: 96%   Direction: 20°NNE
Pressure: 29.98"   Gusts: NA
Location:  44.85°N, 68.33°W
Report Text: KBGR 270053Z 02012KT 1/2SM R15/4000V5500FT SN FG VV005 00/M01 A2998 RMK AO2 PRESFR SLP155 P0011 T00001006
Loading
Personal Weather Stations






























Interactive Weather Map New forecast layout! Learn more

10-Day Weather Forecast

Advertisements
Track Severe Weather on mobile